sensor_id;sensor_type;location;lat;lon;timestamp;temperature;humidity
11043;DHT22;5574;48.786;10.120;2024-03-23T00:53:45;8.40;99.90
11043;DHT22;5574;48.786;10.120;2024-03-23T00:56:26;8.40;99.90
11043;DHT22;5574;48.786;10.120;2024-03-23T00:59:07;8.30;99.90
11043;DHT22;5574;48.786;10.120;2024-03-23T01:01:47;8.30;99.90
11043;DHT22;5574;48.786;10.120;2024-03-23T01:04:28;8.30;99.90
11043;DHT22;5574;48.786;10.120;2024-03-23T01:07:09;8.20;99.90
11043;DHT22;5574;48.786;10.120;2024-03-23T01:09:53;8.20;99.90
11043;DHT22;5574;48.786;10.120;2024-03-23T01:12:34;8.20;99.90
11043;DHT22;5574;48.786;10.120;2024-03-23T01:15:15;8.20;99.90
11043;DHT22;5574;48.786;10.120;2024-03-23T01:17:55;8.20;99.90
11043;DHT22;5574;48.786;10.120;2024-03-23T01:20:36;8.10;99.90
11043;DHT22;5574;48.786;10.120;2024-03-23T01:23:17;8.10;99.90
11043;DHT22;5574;48.786;10.120;2024-03-23T01:26:01;8.10;99.90
11043;DHT22;5574;48.786;10.120;2024-03-23T01:28:42;8.10;99.90
11043;DHT22;5574;48.786;10.120;2024-03-23T01:31:23;8.10;99.90
11043;DHT22;5574;48.786;10.120;2024-03-23T01:34:04;8.10;99.90
11043;DHT22;5574;48.786;10.120;2024-03-23T01:36:44;8.10;99.90
11043;DHT22;5574;48.786;10.120;2024-03-23T01:39:25;8.20;99.90
11043;DHT22;5574;48.786;10.120;2024-03-23T01:42:09;8.20;99.90
11043;DHT22;5574;48.786;10.120;2024-03-23T01:44:50;8.10;99.90
11043;DHT22;5574;48.786;10.120;2024-03-23T01:47:31;8.10;99.90
11043;DHT22;5574;48.786;10.120;2024-03-23T01:50:12;8.00;99.90
11043;DHT22;5574;48.786;10.120;2024-03-23T01:52:53;7.90;99.90
11043;DHT22;5574;48.786;10.120;2024-03-23T01:55:34;7.90;99.90
11043;DHT22;5574;48.786;10.120;2024-03-23T01:58:18;7.90;99.90
11043;DHT22;5574;48.786;10.120;2024-03-23T02:00:59;7.90;99.90
11043;DHT22;5574;48.786;10.120;2024-03-23T02:03:39;7.90;99.90
11043;DHT22;5574;48.786;10.120;2024-03-23T02:06:20;7.90;99.90
11043;DHT22;5574;48.786;10.120;2024-03-23T02:09:02;7.90;99.90
11043;DHT22;5574;48.786;10.120;2024-03-23T02:11:44;7.90;99.90
11043;DHT22;5574;48.786;10.120;2024-03-23T02:14:27;7.90;99.90
11043;DHT22;5574;48.786;10.120;2024-03-23T02:17:09;7.80;99.90
11043;DHT22;5574;48.786;10.120;2024-03-23T02:19:50;7.80;99.90
11043;DHT22;5574;48.786;10.120;2024-03-23T02:22:36;7.80;99.90
11043;DHT22;5574;48.786;10.120;2024-03-23T02:25:19;7.80;99.90
11043;DHT22;5574;48.786;10.120;2024-03-23T02:28:00;7.80;99.90
11043;DHT22;5574;48.786;10.120;2024-03-23T02:30:41;7.80;99.90
11043;DHT22;5574;48.786;10.120;2024-03-23T02:33:22;7.80;99.90
11043;DHT22;5574;48.786;10.120;2024-03-23T02:36:04;7.80;99.90
11043;DHT22;5574;48.786;10.120;2024-03-23T02:38:45;7.80;99.90
11043;DHT22;5574;48.786;10.120;2024-03-23T02:41:28;7.80;99.90
11043;DHT22;5574;48.786;10.120;2024-03-23T02:44:09;7.80;99.90
11043;DHT22;5574;48.786;10.120;2024-03-23T02:46:50;7.80;99.90
11043;DHT22;5574;48.786;10.120;2024-03-23T02:49:31;7.80;99.90
11043;DHT22;5574;48.786;10.120;2024-03-23T02:52:12;7.80;99.90
11043;DHT22;5574;48.786;10.120;2024-03-23T02:54:53;7.80;99.90
11043;DHT22;5574;48.786;10.120;2024-03-23T02:57:36;7.90;99.90
11043;DHT22;5574;48.786;10.120;2024-03-23T03:00:17;7.90;99.90
11043;DHT22;5574;48.786;10.120;2024-03-23T03:02:58;8.00;99.90
11043;DHT22;5574;48.786;10.120;2024-03-23T03:05:39;8.00;99.90
11043;DHT22;5574;48.786;10.120;2024-03-23T03:08:20;8.00;99.90
11043;DHT22;5574;48.786;10.120;2024-03-23T03:11:01;8.00;99.90
11043;DHT22;5574;48.786;10.120;2024-03-23T03:13:45;8.00;99.90
11043;DHT22;5574;48.786;10.120;2024-03-23T03:16:26;8.10;99.90
11043;DHT22;5574;48.786;10.120;2024-03-23T03:19:06;8.10;99.90
11043;DHT22;5574;48.786;10.120;2024-03-23T03:21:47;8.20;99.90
11043;DHT22;5574;48.786;10.120;2024-03-23T03:24:28;8.30;99.90
11043;DHT22;5574;48.786;10.120;2024-03-23T03:27:09;8.40;99.90
11043;DHT22;5574;48.786;10.120;2024-03-23T03:29:53;8.50;99.90
11043;DHT22;5574;48.786;10.120;2024-03-23T03:32:34;8.60;99.90
11043;DHT22;5574;48.786;10.120;2024-03-23T03:35:15;8.70;99.90
11043;DHT22;5574;48.786;10.120;2024-03-23T03:37:56;8.80;99.90
11043;DHT22;5574;48.786;10.120;2024-03-23T03:40:37;8.80;99.90
11043;DHT22;5574;48.786;10.120;2024-03-23T03:43:18;8.90;99.90
11043;DHT22;5574;48.786;10.120;2024-03-23T03:46:02;8.80;99.90
11043;DHT22;5574;48.786;10.120;2024-03-23T03:48:43;8.80;99.90
11043;DHT22;5574;48.786;10.120;2024-03-23T03:51:24;8.80;99.90
11043;DHT22;5574;48.786;10.120;2024-03-23T03:54:05;8.80;99.90
11043;DHT22;5574;48.786;10.120;2024-03-23T03:56:46;8.90;99.90
11043;DHT22;5574;48.786;10.120;2024-03-23T03:59:27;8.80;99.90
11043;DHT22;5574;48.786;10.120;2024-03-23T04:02:10;8.90;99.90
11043;DHT22;5574;48.786;10.120;2024-03-23T04:04:51;8.90;99.90
11043;DHT22;5574;48.786;10.120;2024-03-23T04:07:32;8.90;99.90
11043;DHT22;5574;48.786;10.120;2024-03-23T04:10:13;8.90;99.90
11043;DHT22;5574;48.786;10.120;2024-03-23T04:12:54;8.90;99.90
11043;DHT22;5574;48.786;10.120;2024-03-23T04:15:35;8.90;99.90
11043;DHT22;5574;48.786;10.120;2024-03-23T04:18:19;8.80;99.90
11043;DHT22;5574;48.786;10.120;2024-03-23T04:20:59;8.90;99.90
11043;DHT22;5574;48.786;10.120;2024-03-23T04:23:40;8.90;99.90
11043;DHT22;5574;48.786;10.120;2024-03-23T04:26:21;8.90;99.90
11043;DHT22;5574;48.786;10.120;2024-03-23T04:29:02;8.80;99.90
11043;DHT22;5574;48.786;10.120;2024-03-23T04:31:43;8.80;99.90
11043;DHT22;5574;48.786;10.120;2024-03-23T04:34:26;8.80;99.90
11043;DHT22;5574;48.786;10.120;2024-03-23T04:37:07;8.70;99.90
11043;DHT22;5574;48.786;10.120;2024-03-23T04:39:48;8.70;99.90
11043;DHT22;5574;48.786;10.120;2024-03-23T04:42:30;8.70;99.90
11043;DHT22;5574;48.786;10.120;2024-03-23T04:45:11;8.60;99.90
11043;DHT22;5574;48.786;10.120;2024-03-23T04:47:51;8.70;99.90
11043;DHT22;5574;48.786;10.120;2024-03-23T04:50:35;8.60;99.90
11043;DHT22;5574;48.786;10.120;2024-03-23T04:53:16;8.60;99.90
11043;DHT22;5574;48.786;10.120;2024-03-23T04:55:57;8.60;99.90
11043;DHT22;5574;48.786;10.120;2024-03-23T04:58:38;8.60;99.90
11043;DHT22;5574;48.786;10.120;2024-03-23T05:01:19;8.60;99.90
11043;DHT22;5574;48.786;10.120;2024-03-23T05:04:00;8.50;99.90
11043;DHT22;5574;48.786;10.120;2024-03-23T05:06:43;8.50;99.90
11043;DHT22;5574;48.786;10.120;2024-03-23T05:09:24;8.40;99.90
11043;DHT22;5574;48.786;10.120;2024-03-23T05:12:06;8.40;99.90
11043;DHT22;5574;48.786;10.120;2024-03-23T05:14:47;8.40;99.90
11043;DHT22;5574;48.786;10.120;2024-03-23T05:17:28;8.40;99.90
11043;DHT22;5574;48.786;10.120;2024-03-23T05:20:09;8.40;99.90
11043;DHT22;5574;48.786;10.120;2024-03-23T05:22:54;8.40;99.90
11043;DHT22;5574;48.786;10.120;2024-03-23T05:25:35;8.40;99.90
11043;DHT22;5574;48.786;10.120;2024-03-23T05:28:16;8.40;99.90
11043;DHT22;5574;48.786;10.120;2024-03-23T05:30:57;8.40;99.90
11043;DHT22;5574;48.786;10.120;2024-03-23T05:33:38;8.40;99.90
11043;DHT22;5574;48.786;10.120;2024-03-23T05:36:18;8.40;99.90
11043;DHT22;5574;48.786;10.120;2024-03-23T05:39:02;8.40;99.90
11043;DHT22;5574;48.786;10.120;2024-03-23T05:41:44;8.40;99.90
11043;DHT22;5574;48.786;10.120;2024-03-23T05:44:25;8.40;99.90
11043;DHT22;5574;48.786;10.120;2024-03-23T05:47:06;8.40;99.90
11043;DHT22;5574;48.786;10.120;2024-03-23T05:49:47;8.60;99.90
11043;DHT22;5574;48.786;10.120;2024-03-23T05:52:28;9.00;99.90
11043;DHT22;5574;48.786;10.120;2024-03-23T05:55:11;9.20;99.90
11043;DHT22;5574;48.786;10.120;2024-03-23T05:57:52;9.30;99.90
11043;DHT22;5574;48.786;10.120;2024-03-23T06:00:33;9.40;99.90
11043;DHT22;5574;48.786;10.120;2024-03-23T06:03:14;9.50;99.90
11043;DHT22;5574;48.786;10.120;2024-03-23T06:05:56;9.50;99.90
11043;DHT22;5574;48.786;10.120;2024-03-23T06:08:37;9.50;99.90
11043;DHT22;5574;48.786;10.120;2024-03-23T06:11:20;9.50;99.90
11043;DHT22;5574;48.786;10.120;2024-03-23T06:14:01;9.50;99.90
11043;DHT22;5574;48.786;10.120;2024-03-23T06:16:42;9.50;99.90
11043;DHT22;5574;48.786;10.120;2024-03-23T06:19:23;9.50;99.90
11043;DHT22;5574;48.786;10.120;2024-03-23T06:22:04;9.50;99.90
11043;DHT22;5574;48.786;10.120;2024-03-23T06:24:45;9.50;99.90
11043;DHT22;5574;48.786;10.120;2024-03-23T06:27:28;9.50;99.90
11043;DHT22;5574;48.786;10.120;2024-03-23T06:30:10;9.50;99.90
11043;DHT22;5574;48.786;10.120;2024-03-23T06:32:51;9.50;99.90
11043;DHT22;5574;48.786;10.120;2024-03-23T06:35:32;9.50;99.90
11043;DHT22;5574;48.786;10.120;2024-03-23T06:38:19;9.50;99.90
11043;DHT22;5574;48.786;10.120;2024-03-23T06:41:02;9.30;99.90
11043;DHT22;5574;48.786;10.120;2024-03-23T06:43:46;9.30;99.90
11043;DHT22;5574;48.786;10.120;2024-03-23T06:46:27;9.30;99.90
11043;DHT22;5574;48.786;10.120;2024-03-23T06:49:08;9.30;99.90
11043;DHT22;5574;48.786;10.120;2024-03-23T06:51:51;9.20;99.90
11043;DHT22;5574;48.786;10.120;2024-03-23T06:54:32;9.20;99.90
11043;DHT22;5574;48.786;10.120;2024-03-23T06:57:15;9.10;99.90
11043;DHT22;5574;48.786;10.120;2024-03-23T06:59:59;9.10;99.90
11043;DHT22;5574;48.786;10.120;2024-03-23T07:02:42;9.10;99.90
11043;DHT22;5574;48.786;10.120;2024-03-23T07:05:31;9.10;99.90
11043;DHT22;5574;48.786;10.120;2024-03-23T07:08:13;9.10;99.90
11043;DHT22;5574;48.786;10.120;2024-03-23T07:10:54;9.10;99.90
11043;DHT22;5574;48.786;10.120;2024-03-23T07:13:35;9.10;99.90
11043;DHT22;5574;48.786;10.120;2024-03-23T07:16:18;9.00;99.90
11043;DHT22;5574;48.786;10.120;2024-03-23T07:19:02;9.00;99.90
11043;DHT22;5574;48.786;10.120;2024-03-23T07:21:43;9.00;99.90
11043;DHT22;5574;48.786;10.120;2024-03-23T07:24:24;9.00;99.90
11043;DHT22;5574;48.786;10.120;2024-03-23T07:27:05;9.10;99.90
11043;DHT22;5574;48.786;10.120;2024-03-23T07:29:46;9.10;99.90
11043;DHT22;5574;48.786;10.120;2024-03-23T07:32:29;9.10;99.90
11043;DHT22;5574;48.786;10.120;2024-03-23T07:35:10;9.10;99.90
11043;DHT22;5574;48.786;10.120;2024-03-23T07:37:51;9.10;99.90
11043;DHT22;5574;48.786;10.120;2024-03-23T07:40:32;9.10;99.90
11043;DHT22;5574;48.786;10.120;2024-03-23T07:43:13;9.00;99.90
11043;DHT22;5574;48.786;10.120;2024-03-23T07:45:54;9.00;99.90
11043;DHT22;5574;48.786;10.120;2024-03-23T07:48:38;9.00;99.90
11043;DHT22;5574;48.786;10.120;2024-03-23T07:51:20;9.00;99.90
11043;DHT22;5574;48.786;10.120;2024-03-23T07:54:01;9.10;99.90
11043;DHT22;5574;48.786;10.120;2024-03-23T07:56:42;9.10;99.90
11043;DHT22;5574;48.786;10.120;2024-03-23T07:59:23;9.20;99.90
11043;DHT22;5574;48.786;10.120;2024-03-23T08:02:05;9.10;99.90
11043;DHT22;5574;48.786;10.120;2024-03-23T08:04:48;9.10;99.90
11043;DHT22;5574;48.786;10.120;2024-03-23T08:07:29;9.00;99.90
11043;DHT22;5574;48.786;10.120;2024-03-23T08:10:10;9.00;99.90
11043;DHT22;5574;48.786;10.120;2024-03-23T08:12:51;8.90;99.90
11043;DHT22;5574;48.786;10.120;2024-03-23T08:15:32;8.90;99.90
11043;DHT22;5574;48.786;10.120;2024-03-23T08:18:13;8.90;99.90
11043;DHT22;5574;48.786;10.120;2024-03-23T08:21:01;9.00;99.90
11043;DHT22;5574;48.786;10.120;2024-03-23T08:23:42;9.00;99.90
11043;DHT22;5574;48.786;10.120;2024-03-23T08:26:23;9.10;99.90
11043;DHT22;5574;48.786;10.120;2024-03-23T08:29:04;9.20;99.90
11043;DHT22;5574;48.786;10.120;2024-03-23T08:31:45;9.20;99.90
11043;DHT22;5574;48.786;10.120;2024-03-23T08:34:26;9.20;99.90
11043;DHT22;5574;48.786;10.120;2024-03-23T08:37:10;9.20;99.90
11043;DHT22;5574;48.786;10.120;2024-03-23T08:39:51;9.30;99.90
11043;DHT22;5574;48.786;10.120;2024-03-23T08:42:32;9.30;99.90
11043;DHT22;5574;48.786;10.120;2024-03-23T08:45:13;9.30;99.90
11043;DHT22;5574;48.786;10.120;2024-03-23T08:47:54;9.30;99.90
11043;DHT22;5574;48.786;10.120;2024-03-23T08:50:35;9.40;99.90
11043;DHT22;5574;48.786;10.120;2024-03-23T08:53:18;9.30;99.90
11043;DHT22;5574;48.786;10.120;2024-03-23T08:56:00;9.40;99.90
11043;DHT22;5574;48.786;10.120;2024-03-23T08:58:41;9.50;99.90
11043;DHT22;5574;48.786;10.120;2024-03-23T09:01:22;9.50;99.90
11043;DHT22;5574;48.786;10.120;2024-03-23T09:04:04;9.40;99.90
11043;DHT22;5574;48.786;10.120;2024-03-23T09:06:44;9.50;99.90
11043;DHT22;5574;48.786;10.120;2024-03-23T09:09:28;9.50;99.90
11043;DHT22;5574;48.786;10.120;2024-03-23T09:12:09;9.50;99.90
11043;DHT22;5574;48.786;10.120;2024-03-23T09:14:50;9.50;99.90
11043;DHT22;5574;48.786;10.120;2024-03-23T09:17:31;9.50;99.90
11043;DHT22;5574;48.786;10.120;2024-03-23T09:20:12;9.20;99.90
11043;DHT22;5574;48.786;10.120;2024-03-23T09:22:53;9.00;99.90
11043;DHT22;5574;48.786;10.120;2024-03-23T09:25:39;8.90;99.90
11043;DHT22;5574;48.786;10.120;2024-03-23T09:28:20;8.70;99.90
11043;DHT22;5574;48.786;10.120;2024-03-23T09:31:02;8.70;99.90
11043;DHT22;5574;48.786;10.120;2024-03-23T09:33:43;8.70;99.90
11043;DHT22;5574;48.786;10.120;2024-03-23T09:36:24;8.70;99.90
11043;DHT22;5574;48.786;10.120;2024-03-23T09:39:06;8.70;99.90
11043;DHT22;5574;48.786;10.120;2024-03-23T09:41:50;8.60;99.90
11043;DHT22;5574;48.786;10.120;2024-03-23T09:44:31;8.60;99.90
11043;DHT22;5574;48.786;10.120;2024-03-23T09:47:12;8.60;99.90
11043;DHT22;5574;48.786;10.120;2024-03-23T09:49:53;8.60;99.90
11043;DHT22;5574;48.786;10.120;2024-03-23T09:52:35;8.60;99.90
11043;DHT22;5574;48.786;10.120;2024-03-23T09:55:16;8.50;99.90
11043;DHT22;5574;48.786;10.120;2024-03-23T09:57:59;8.50;99.90
11043;DHT22;5574;48.786;10.120;2024-03-23T10:00:40;8.40;99.90
11043;DHT22;5574;48.786;10.120;2024-03-23T10:03:21;8.60;99.90
11043;DHT22;5574;48.786;10.120;2024-03-23T10:06:03;8.80;99.90
11043;DHT22;5574;48.786;10.120;2024-03-23T10:08:44;9.00;99.90
11043;DHT22;5574;48.786;10.120;2024-03-23T10:11:25;8.90;99.90
11043;DHT22;5574;48.786;10.120;2024-03-23T10:14:09;8.80;99.90
11043;DHT22;5574;48.786;10.120;2024-03-23T10:16:50;8.60;99.90
11043;DHT22;5574;48.786;10.120;2024-03-23T10:19:31;8.50;99.90
11043;DHT22;5574;48.786;10.120;2024-03-23T10:22:14;8.40;99.90
11043;DHT22;5574;48.786;10.120;2024-03-23T10:25:07;8.30;99.90
11043;DHT22;5574;48.786;10.120;2024-03-23T10:27:58;8.40;99.90
11043;DHT22;5574;48.786;10.120;2024-03-23T10:30:42;8.40;99.90
11043;DHT22;5574;48.786;10.120;2024-03-23T10:33:23;8.70;99.90
11043;DHT22;5574;48.786;10.120;2024-03-23T10:36:06;9.10;99.90
11043;DHT22;5574;48.786;10.120;2024-03-23T10:38:50;9.30;99.90
11043;DHT22;5574;48.786;10.120;2024-03-23T10:41:32;9.50;99.90
11043;DHT22;5574;48.786;10.120;2024-03-23T10:44:13;9.80;99.90
11043;DHT22;5574;48.786;10.120;2024-03-23T10:46:57;10.00;99.90
11043;DHT22;5574;48.786;10.120;2024-03-23T10:49:39;10.20;99.90
11043;DHT22;5574;48.786;10.120;2024-03-23T10:52:20;10.20;99.90
11043;DHT22;5574;48.786;10.120;2024-03-23T10:55:04;10.40;99.90
11043;DHT22;5574;48.786;10.120;2024-03-23T10:57:50;10.70;99.90
11043;DHT22;5574;48.786;10.120;2024-03-23T11:00:32;10.70;99.90
11043;DHT22;5574;48.786;10.120;2024-03-23T11:03:34;10.80;99.90
11043;DHT22;5574;48.786;10.120;2024-03-23T11:06:34;11.20;99.90
11043;DHT22;5574;48.786;10.120;2024-03-23T11:09:39;11.50;99.90
11043;DHT22;5574;48.786;10.120;2024-03-23T11:12:28;11.50;99.90
11043;DHT22;5574;48.786;10.120;2024-03-23T11:15:11;11.80;99.90
11043;DHT22;5574;48.786;10.120;2024-03-23T11:18:06;11.90;99.90
11043;DHT22;5574;48.786;10.120;2024-03-23T11:20:50;11.80;99.90
11043;DHT22;5574;48.786;10.120;2024-03-23T11:23:31;11.80;99.90
11043;DHT22;5574;48.786;10.120;2024-03-23T11:26:12;11.80;99.90
11043;DHT22;5574;48.786;10.120;2024-03-23T11:29:08;11.60;99.90
11043;DHT22;5574;48.786;10.120;2024-03-23T11:31:50;11.60;99.90
11043;DHT22;5574;48.786;10.120;2024-03-23T11:34:34;11.90;99.90
11043;DHT22;5574;48.786;10.120;2024-03-23T11:37:17;12.10;99.90
11043;DHT22;5574;48.786;10.120;2024-03-23T11:39:58;12.20;99.90
11043;DHT22;5574;48.786;10.120;2024-03-23T11:42:39;12.40;97.90
11043;DHT22;5574;48.786;10.120;2024-03-23T11:45:20;12.00;96.00
11043;DHT22;5574;48.786;10.120;2024-03-23T11:48:08;11.60;96.90
11043;DHT22;5574;48.786;10.120;2024-03-23T11:50:53;11.30;98.40
11043;DHT22;5574;48.786;10.120;2024-03-23T11:53:37;11.00;98.10
11043;DHT22;5574;48.786;10.120;2024-03-23T11:56:18;10.70;99.60
11043;DHT22;5574;48.786;10.120;2024-03-23T11:58:59;10.50;99.90
11043;DHT22;5574;48.786;10.120;2024-03-23T12:01:40;10.20;99.90
11043;DHT22;5574;48.786;10.120;2024-03-23T12:04:25;9.80;99.90
11043;DHT22;5574;48.786;10.120;2024-03-23T12:07:11;9.60;99.90
11043;DHT22;5574;48.786;10.120;2024-03-23T12:10:06;9.30;99.90
11043;DHT22;5574;48.786;10.120;2024-03-23T12:13:00;9.20;99.90
11043;DHT22;5574;48.786;10.120;2024-03-23T12:15:41;9.10;99.90
11043;DHT22;5574;48.786;10.120;2024-03-23T12:18:23;9.00;99.90
11043;DHT22;5574;48.786;10.120;2024-03-23T12:21:05;9.10;99.90
11043;DHT22;5574;48.786;10.120;2024-03-23T12:23:46;9.10;99.90
11043;DHT22;5574;48.786;10.120;2024-03-23T12:26:29;9.30;99.90
11043;DHT22;5574;48.786;10.120;2024-03-23T12:29:10;9.50;99.90
11043;DHT22;5574;48.786;10.120;2024-03-23T12:31:51;9.80;99.90
11043;DHT22;5574;48.786;10.120;2024-03-23T12:34:32;10.10;99.90
11043;DHT22;5574;48.786;10.120;2024-03-23T12:37:13;10.40;99.90
11043;DHT22;5574;48.786;10.120;2024-03-23T12:39:54;10.60;99.90
11043;DHT22;5574;48.786;10.120;2024-03-23T12:42:38;10.70;99.90
11043;DHT22;5574;48.786;10.120;2024-03-23T12:45:19;10.90;99.90
11043;DHT22;5574;48.786;10.120;2024-03-23T12:47:59;10.90;99.90
11043;DHT22;5574;48.786;10.120;2024-03-23T12:50:41;10.90;99.90
11043;DHT22;5574;48.786;10.120;2024-03-23T12:53:21;10.90;99.90
11043;DHT22;5574;48.786;10.120;2024-03-23T12:56:03;10.90;99.90
11043;DHT22;5574;48.786;10.120;2024-03-23T12:58:46;10.90;97.60
11043;DHT22;5574;48.786;10.120;2024-03-23T13:01:28;10.90;98.30
11043;DHT22;5574;48.786;10.120;2024-03-23T13:04:09;10.70;98.50
11043;DHT22;5574;48.786;10.120;2024-03-23T13:06:50;10.50;97.40
11043;DHT22;5574;48.786;10.120;2024-03-23T13:09:31;10.30;98.40
11043;DHT22;5574;48.786;10.120;2024-03-23T13:12:12;10.20;98.50
11043;DHT22;5574;48.786;10.120;2024-03-23T13:14:56;10.20;98.50
11043;DHT22;5574;48.786;10.120;2024-03-23T13:17:37;10.40;97.70
11043;DHT22;5574;48.786;10.120;2024-03-23T13:20:18;10.40;97.40
11043;DHT22;5574;48.786;10.120;2024-03-23T13:22:59;10.40;98.30
11043;DHT22;5574;48.786;10.120;2024-03-23T13:25:39;10.40;96.30
11043;DHT22;5574;48.786;10.120;2024-03-23T13:28:20;10.20;95.90
11043;DHT22;5574;48.786;10.120;2024-03-23T13:31:04;10.10;98.20
11043;DHT22;5574;48.786;10.120;2024-03-23T13:33:45;10.10;98.90
11043;DHT22;5574;48.786;10.120;2024-03-23T13:36:26;10.10;97.60
11043;DHT22;5574;48.786;10.120;2024-03-23T13:39:07;10.20;98.60
11043;DHT22;5574;48.786;10.120;2024-03-23T13:41:49;10.40;98.40
11043;DHT22;5574;48.786;10.120;2024-03-23T13:44:30;10.60;98.60
11043;DHT22;5574;48.786;10.120;2024-03-23T13:47:14;10.70;99.10
11043;DHT22;5574;48.786;10.120;2024-03-23T13:49:55;10.80;97.80
11043;DHT22;5574;48.786;10.120;2024-03-23T13:52:36;10.90;97.60
11043;DHT22;5574;48.786;10.120;2024-03-23T13:55:17;10.90;97.90
11043;DHT22;5574;48.786;10.120;2024-03-23T13:57:58;11.20;99.10
11043;DHT22;5574;48.786;10.120;2024-03-23T14:00:39;11.20;97.20
11043;DHT22;5574;48.786;10.120;2024-03-23T14:03:22;11.20;97.90
11043;DHT22;5574;48.786;10.120;2024-03-23T14:06:04;11.20;97.10
11043;DHT22;5574;48.786;10.120;2024-03-23T14:08:45;11.20;97.90
11043;DHT22;5574;48.786;10.120;2024-03-23T14:11:26;11.30;97.40
11043;DHT22;5574;48.786;10.120;2024-03-23T14:14:07;11.40;97.20
11043;DHT22;5574;48.786;10.120;2024-03-23T14:16:48;11.40;97.10
11043;DHT22;5574;48.786;10.120;2024-03-23T14:19:32;11.40;97.20
11043;DHT22;5574;48.786;10.120;2024-03-23T14:22:13;11.40;95.20
11043;DHT22;5574;48.786;10.120;2024-03-23T14:24:54;11.40;95.90
11043;DHT22;5574;48.786;10.120;2024-03-23T14:27:35;11.50;96.60
11043;DHT22;5574;48.786;10.120;2024-03-23T14:30:16;11.60;96.50
11043;DHT22;5574;48.786;10.120;2024-03-23T14:32:57;11.50;96.00
11043;DHT22;5574;48.786;10.120;2024-03-23T14:35:41;11.40;96.10
11043;DHT22;5574;48.786;10.120;2024-03-23T14:38:22;11.30;96.10
11043;DHT22;5574;48.786;10.120;2024-03-23T14:41:03;11.10;95.70
11043;DHT22;5574;48.786;10.120;2024-03-23T14:43:44;10.90;96.60
11043;DHT22;5574;48.786;10.120;2024-03-23T14:46:25;11.00;96.60
11043;DHT22;5574;48.786;10.120;2024-03-23T14:49:06;11.00;96.70
11043;DHT22;5574;48.786;10.120;2024-03-23T14:51:50;11.20;97.30
11043;DHT22;5574;48.786;10.120;2024-03-23T14:54:30;11.20;96.20
11043;DHT22;5574;48.786;10.120;2024-03-23T14:57:12;11.30;95.50
11043;DHT22;5574;48.786;10.120;2024-03-23T14:59:53;11.40;95.40
11043;DHT22;5574;48.786;10.120;2024-03-23T15:02:34;11.20;94.40
11043;DHT22;5574;48.786;10.120;2024-03-23T15:05:15;11.00;94.30
11043;DHT22;5574;48.786;10.120;2024-03-23T15:07:58;10.70;93.90
11043;DHT22;5574;48.786;10.120;2024-03-23T15:10:39;10.20;97.90
11043;DHT22;5574;48.786;10.120;2024-03-23T15:13:20;9.80;99.70
11043;DHT22;5574;48.786;10.120;2024-03-23T15:16:02;9.50;99.90
11043;DHT22;5574;48.786;10.120;2024-03-23T15:18:44;9.10;99.90
11043;DHT22;5574;48.786;10.120;2024-03-23T15:21:25;9.00;99.90
11043;DHT22;5574;48.786;10.120;2024-03-23T15:24:09;8.90;99.90
11043;DHT22;5574;48.786;10.120;2024-03-23T15:26:50;8.80;99.90
11043;DHT22;5574;48.786;10.120;2024-03-23T15:29:31;8.60;99.90
11043;DHT22;5574;48.786;10.120;2024-03-23T15:32:12;8.50;99.90
11043;DHT22;5574;48.786;10.120;2024-03-23T15:34:54;8.40;99.90
11043;DHT22;5574;48.786;10.120;2024-03-23T15:37:35;8.30;99.90
11043;DHT22;5574;48.786;10.120;2024-03-23T15:40:18;8.20;99.90
11043;DHT22;5574;48.786;10.120;2024-03-23T15:42:59;8.40;99.90
11043;DHT22;5574;48.786;10.120;2024-03-23T15:45:40;8.50;99.90
11043;DHT22;5574;48.786;10.120;2024-03-23T15:48:21;8.70;99.90
11043;DHT22;5574;48.786;10.120;2024-03-23T15:51:03;8.90;99.90
11043;DHT22;5574;48.786;10.120;2024-03-23T15:53:44;8.80;99.90
11043;DHT22;5574;48.786;10.120;2024-03-23T15:56:29;8.80;99.90
11043;DHT22;5574;48.786;10.120;2024-03-23T15:59:10;8.60;99.90
11043;DHT22;5574;48.786;10.120;2024-03-23T16:01:50;8.60;99.60
11043;DHT22;5574;48.786;10.120;2024-03-23T16:04:31;8.30;99.40
11043;DHT22;5574;48.786;10.120;2024-03-23T16:07:12;8.20;99.30
11043;DHT22;5574;48.786;10.120;2024-03-23T16:09:53;8.20;99.00
11043;DHT22;5574;48.786;10.120;2024-03-23T16:12:37;8.10;99.70
11043;DHT22;5574;48.786;10.120;2024-03-23T16:15:18;8.20;99.80
11043;DHT22;5574;48.786;10.120;2024-03-23T16:17:59;8.30;99.70
11043;DHT22;5574;48.786;10.120;2024-03-23T16:20:40;8.30;99.50
11043;DHT22;5574;48.786;10.120;2024-03-23T16:23:21;8.40;99.80
11043;DHT22;5574;48.786;10.120;2024-03-23T16:26:03;8.30;99.20
11043;DHT22;5574;48.786;10.120;2024-03-23T16:28:46;8.30;99.50
11043;DHT22;5574;48.786;10.120;2024-03-23T16:31:27;8.30;99.60
11043;DHT22;5574;48.786;10.120;2024-03-23T16:34:09;8.30;99.60
11043;DHT22;5574;48.786;10.120;2024-03-23T16:36:49;8.30;99.70
11043;DHT22;5574;48.786;10.120;2024-03-23T16:39:30;8.20;99.00
11043;DHT22;5574;48.786;10.120;2024-03-23T16:42:11;8.20;99.30
11043;DHT22;5574;48.786;10.120;2024-03-23T16:44:55;8.10;98.90
11043;DHT22;5574;48.786;10.120;2024-03-23T16:47:36;8.10;99.50
11043;DHT22;5574;48.786;10.120;2024-03-23T16:50:17;8.10;99.30
11043;DHT22;5574;48.786;10.120;2024-03-23T16:52:58;8.10;99.10
11043;DHT22;5574;48.786;10.120;2024-03-23T16:55:45;8.10;98.80
11043;DHT22;5574;48.786;10.120;2024-03-23T16:58:28;8.10;99.30
11043;DHT22;5574;48.786;10.120;2024-03-23T17:01:20;8.10;98.40
11043;DHT22;5574;48.786;10.120;2024-03-23T17:04:01;8.00;97.70
11043;DHT22;5574;48.786;10.120;2024-03-23T17:06:43;7.90;97.80
11043;DHT22;5574;48.786;10.120;2024-03-23T17:09:24;7.90;98.10
11043;DHT22;5574;48.786;10.120;2024-03-23T17:12:08;7.90;98.70
11043;DHT22;5574;48.786;10.120;2024-03-23T17:14:49;7.80;97.60
11043;DHT22;5574;48.786;10.120;2024-03-23T17:17:33;7.80;98.20
11043;DHT22;5574;48.786;10.120;2024-03-23T17:20:14;7.70;98.00
11043;DHT22;5574;48.786;10.120;2024-03-23T17:22:55;7.60;97.90
11043;DHT22;5574;48.786;10.120;2024-03-23T17:25:36;7.60;98.30
11043;DHT22;5574;48.786;10.120;2024-03-23T17:28:17;7.60;98.00
11043;DHT22;5574;48.786;10.120;2024-03-23T17:30:58;7.60;98.30
11043;DHT22;5574;48.786;10.120;2024-03-23T17:33:42;7.60;98.20
11043;DHT22;5574;48.786;10.120;2024-03-23T17:36:23;7.50;98.60
11043;DHT22;5574;48.786;10.120;2024-03-23T17:39:07;7.40;98.10
11043;DHT22;5574;48.786;10.120;2024-03-23T17:41:48;7.30;98.30
11043;DHT22;5574;48.786;10.120;2024-03-23T17:44:29;7.30;99.00
11043;DHT22;5574;48.786;10.120;2024-03-23T17:47:10;7.30;99.30
11043;DHT22;5574;48.786;10.120;2024-03-23T17:49:53;7.30;99.00
11043;DHT22;5574;48.786;10.120;2024-03-23T17:52:35;7.40;99.80
11043;DHT22;5574;48.786;10.120;2024-03-23T17:55:16;7.30;99.90
11043;DHT22;5574;48.786;10.120;2024-03-23T17:57:57;7.20;99.90
11043;DHT22;5574;48.786;10.120;2024-03-23T18:00:38;7.20;99.90
11043;DHT22;5574;48.786;10.120;2024-03-23T18:03:19;7.10;99.90
11043;DHT22;5574;48.786;10.120;2024-03-23T18:06:03;7.10;99.90
11043;DHT22;5574;48.786;10.120;2024-03-23T18:08:44;7.00;99.90